Аэропорт: Гумрак. Волгоград

ICAO: URWW

METAR:
2024-04-22 21:30:00
URWW 222130Z 28003MPS CAVOK 10/05 Q1019 R23/010070 NOSIG
TAF:
2024-04-22 19:55:00
TAF URWW 221955Z 2221/2306 31003G12MPS 9999 SCT016 
  TEMPO 2221/2306 01003G08MPS BKN016 SCT030CB